Terminal Aerodrome Forecast
Issued by NWS

Home | Current Version | Previous Version | Text Only | Print | Product List | Glossary On
Versions: 1 2 3 4 5 6 7 8 9 10 11 12 13 14
000
FTUS42 KMLB 042329
TAFFPR
TAF
KFPR 042329Z 0500/0524 30003KT P6SM -SHRA FEW040 BKN120 BKN200
     FM050200 VRB02KT P6SM FEW040 SCT120
     FM051400 36004KT P6SM SCT030
     FM051700 05008KT P6SM VCTS SCT040CB SCT070=

USA.gov is the U.S. government's official web portal to all federal, state and local government web resources and services.